| Date | Time | Temp. (oF) | Dew Point (oF) | Rel. Hum. (%) | Press. (in.) | Wind Dir. | Wind Speed (mph) | Hourly Rainfall (in.) |
|
|---|---|---|---|---|---|---|---|---|---|
| 1 | 09/19 | 00:00 | 66 | 62 | 90 | 30.07 | SE | 4 | 0.00 |
| 2 | 09/18 | 23:00 | 66 | 61 | 86 | 30.08 | SE | 2 | 0.00 |
| 3 | 09/18 | 22:00 | 67 | 58 | 74 | 30.07 | E | 2 | 0.00 |
| 4 | 09/18 | 21:00 | 70 | 58 | 68 | 30.05 | ENE | 1 | 0.00 |
| 5 | 09/18 | 20:00 | 73 | 58 | 61 | 30.04 | SE | 4 | 0.00 |
| 6 | 09/18 | 19:00 | 77 | 59 | 55 | 30.02 | ESE | 3 | 0.00 |
| 7 | 09/18 | 18:00 | 79 | 59 | 51 | 30.02 | ESE | 2 | 0.00 |
| 8 | 09/18 | 17:00 | 81 | 58 | 47 | 30.02 | SE | 2 | 0.00 |
| 9 | 09/18 | 16:00 | 82 | 58 | 45 | 30.02 | ENE | 4 | 0.00 |
| 10 | 09/18 | 15:00 | 80 | 57 | 47 | 30.04 | E | 5 | 0.00 |
| 11 | 09/18 | 14:00 | 79 | 56 | 47 | 30.06 | S | 2 | 0.00 |
| 12 | 09/18 | 13:00 | 79 | 57 | 48 | 30.08 | SSE | 3 | 0.00 |
| 13 | 09/18 | 12:00 | 77 | 59 | 56 | 30.10 | SSE | 4 | 0.00 |
| 14 | 09/18 | 11:00 | 70 | 60 | 72 | 30.12 | SE | 1 | 0.00 |
| 15 | 09/18 | 10:00 | 63 | 62 | 99 | 30.13 | S | 1 | 0.00 |
| 16 | 09/18 | 09:00 | 59 | 59 | 100 | 30.11 | NE | 1 | 0.00 |
| 17 | 09/18 | 08:00 | 56 | 55 | 100 | 30.11 | E | 0 | 0.00 |
| 18 | 09/18 | 07:00 | 55 | 54 | 100 | 30.10 | SSE | 0 | 0.00 |
| 19 | 09/18 | 06:00 | 55 | 54 | 100 | 30.09 | SSE | 0 | 0.00 |
| 20 | 09/18 | 05:00 | 56 | 55 | 98 | 30.08 | SW | 0 | 0.00 |
| 21 | 09/18 | 04:00 | 57 | 56 | 98 | 30.07 | SW | 0 | 0.00 |
| 22 | 09/18 | 03:00 | 58 | 57 | 98 | 30.05 | N | 0 | 0.00 |
| 23 | 09/18 | 02:00 | 59 | 58 | 97 | 30.05 | SSW | 2 | 0.00 |
| 24 | 09/18 | 01:00 | 61 | 58 | 93 | 30.04 | N | 0 | 0.00 |